sensor_id;sensor_type;location;lat;lon;timestamp;pressure;altitude;pressure_sealevel;temperature;humidity
81865;BME280;71313;43.514;1.500;2023-07-31T00:00:50;100141.47;;;29.49;43.25
81865;BME280;71313;43.514;1.500;2023-07-31T00:03:16;100140.00;;;29.47;42.75
81865;BME280;71313;43.514;1.500;2023-07-31T00:05:41;100147.63;;;29.51;43.26
81865;BME280;71313;43.514;1.500;2023-07-31T00:08:06;100144.03;;;29.51;42.94
81865;BME280;71313;43.514;1.500;2023-07-31T00:10:32;100141.25;;;29.51;42.55
81865;BME280;71313;43.514;1.500;2023-07-31T00:12:58;100147.41;;;29.53;42.88
81865;BME280;71313;43.514;1.500;2023-07-31T00:15:24;100152.94;;;29.53;42.71
81865;BME280;71313;43.514;1.500;2023-07-31T00:17:49;100149.13;;;29.54;42.85
81865;BME280;71313;43.514;1.500;2023-07-31T00:20:15;100142.97;;;29.52;42.87
81865;BME280;71313;43.514;1.500;2023-07-31T00:22:40;100141.88;;;29.53;42.75
81865;BME280;71313;43.514;1.500;2023-07-31T00:25:06;100140.19;;;29.52;42.86
81865;BME280;71313;43.514;1.500;2023-07-31T00:27:32;100131.28;;;29.50;43.24
81865;BME280;71313;43.514;1.500;2023-07-31T00:29:57;100143.81;;;29.52;42.62
81865;BME280;71313;43.514;1.500;2023-07-31T00:32:23;100131.06;;;29.51;42.80
81865;BME280;71313;43.514;1.500;2023-07-31T00:34:48;100139.13;;;29.53;43.03
81865;BME280;71313;43.514;1.500;2023-07-31T00:37:14;100131.72;;;29.47;42.68
81865;BME280;71313;43.514;1.500;2023-07-31T00:39:40;100137.66;;;29.50;43.14
81865;BME280;71313;43.514;1.500;2023-07-31T00:42:06;100132.34;;;29.49;42.86
81865;BME280;71313;43.514;1.500;2023-07-31T00:44:32;100133.59;;;29.53;42.95
81865;BME280;71313;43.514;1.500;2023-07-31T00:46:57;100128.50;;;29.50;43.01
81865;BME280;71313;43.514;1.500;2023-07-31T00:49:25;100130.19;;;29.51;43.20
81865;BME280;71313;43.514;1.500;2023-07-31T00:51:50;100128.50;;;29.50;42.90
81865;BME280;71313;43.514;1.500;2023-07-31T00:54:16;100124.66;;;29.51;43.09
81865;BME280;71313;43.514;1.500;2023-07-31T00:56:44;100125.97;;;29.48;42.30
81865;BME280;71313;43.514;1.500;2023-07-31T00:59:10;100126.59;;;29.50;42.75
81865;BME280;71313;43.514;1.500;2023-07-31T01:01:36;100124.03;;;29.49;43.06
81865;BME280;71313;43.514;1.500;2023-07-31T01:04:01;100131.91;;;29.52;42.82
81865;BME280;71313;43.514;1.500;2023-07-31T01:06:38;100119.59;;;29.48;42.95
81865;BME280;71313;43.514;1.500;2023-07-31T01:09:34;100127.44;;;29.51;42.95
81865;BME280;71313;43.514;1.500;2023-07-31T01:12:03;100120.84;;;29.52;42.90
81865;BME280;71313;43.514;1.500;2023-07-31T01:14:29;100117.44;;;29.50;42.23
81865;BME280;71313;43.514;1.500;2023-07-31T01:16:55;100118.28;;;29.50;42.85
81865;BME280;71313;43.514;1.500;2023-07-31T01:19:25;100110.03;;;29.44;42.57
81865;BME280;71313;43.514;1.500;2023-07-31T01:28:03;100120.44;;;29.48;42.67
81865;BME280;71313;43.514;1.500;2023-07-31T01:30:34;100124.66;;;29.51;42.75
81865;BME280;71313;43.514;1.500;2023-07-31T01:33:02;100123.19;;;29.48;42.30
81865;BME280;71313;43.514;1.500;2023-07-31T01:35:37;100114.50;;;29.45;42.70
81865;BME280;71313;43.514;1.500;2023-07-31T01:38:02;100116.59;;;29.49;42.93
81865;BME280;71313;43.514;1.500;2023-07-31T01:40:28;100115.75;;;29.49;42.93
81865;BME280;71313;43.514;1.500;2023-07-31T01:42:53;100109.59;;;29.47;42.36
81865;BME280;71313;43.514;1.500;2023-07-31T01:45:19;100109.59;;;29.47;42.78
81865;BME280;71313;43.514;1.500;2023-07-31T01:47:45;100114.06;;;29.48;42.65
81865;BME280;71313;43.514;1.500;2023-07-31T01:50:10;100116.59;;;29.49;42.99
81865;BME280;71313;43.514;1.500;2023-07-31T01:52:36;100117.88;;;29.47;43.35
81865;BME280;71313;43.514;1.500;2023-07-31T01:55:01;100111.72;;;29.45;42.87
81865;BME280;71313;43.514;1.500;2023-07-31T01:57:27;100118.50;;;29.49;42.99
81865;BME280;71313;43.514;1.500;2023-07-31T01:59:52;100114.06;;;29.48;43.00
81865;BME280;71313;43.514;1.500;2023-07-31T02:02:21;100105.97;;;29.46;42.97
81865;BME280;71313;43.514;1.500;2023-07-31T02:04:48;100103.84;;;29.48;43.15
81865;BME280;71313;43.514;1.500;2023-07-31T02:07:13;100090.03;;;29.41;42.80
81865;BME280;71313;43.514;1.500;2023-07-31T02:09:39;100101.06;;;29.48;42.90
81865;BME280;71313;43.514;1.500;2023-07-31T02:12:04;100093.63;;;29.49;42.95
81865;BME280;71313;43.514;1.500;2023-07-31T02:14:30;100100.22;;;29.48;43.00
81865;BME280;71313;43.514;1.500;2023-07-31T02:16:55;100090.25;;;29.47;42.96
81865;BME280;71313;43.514;1.500;2023-07-31T02:19:21;100084.09;;;29.45;42.11
81865;BME280;71313;43.514;1.500;2023-07-31T02:21:46;100090.25;;;29.47;43.00
81865;BME280;71313;43.514;1.500;2023-07-31T02:24:12;100085.78;;;29.46;42.57
81865;BME280;71313;43.514;1.500;2023-07-31T02:26:37;100085.56;;;29.47;42.68
81865;BME280;71313;43.514;1.500;2023-07-31T02:29:02;100074.09;;;29.44;42.85
81865;BME280;71313;43.514;1.500;2023-07-31T02:31:28;100086.41;;;29.48;42.89
81865;BME280;71313;43.514;1.500;2023-07-31T02:33:54;100088.53;;;29.46;42.83
81865;BME280;71313;43.514;1.500;2023-07-31T02:36:19;100084.94;;;29.45;42.69
81865;BME280;71313;43.514;1.500;2023-07-31T02:38:44;100090.25;;;29.47;42.34
81865;BME280;71313;43.514;1.500;2023-07-31T02:41:10;100078.97;;;29.41;42.95
81865;BME280;71313;43.514;1.500;2023-07-31T02:43:35;100076.19;;;29.41;42.80
81865;BME280;71313;43.514;1.500;2023-07-31T02:46:01;100082.63;;;29.42;43.17
81865;BME280;71313;43.514;1.500;2023-07-31T02:48:26;100068.97;;;29.40;42.67
81865;BME280;71313;43.514;1.500;2023-07-31T02:50:51;100082.16;;;29.45;42.78
81865;BME280;71313;43.514;1.500;2023-07-31T02:53:17;100064.53;;;29.39;42.58
81865;BME280;71313;43.514;1.500;2023-07-31T02:55:42;100052.00;;;29.37;42.63
81865;BME280;71313;43.514;1.500;2023-07-31T02:58:08;100066.88;;;29.43;42.63
81865;BME280;71313;43.514;1.500;2023-07-31T03:00:33;100061.34;;;29.43;42.90
81865;BME280;71313;43.514;1.500;2023-07-31T03:02:58;100064.72;;;29.45;43.29
81865;BME280;71313;43.514;1.500;2023-07-31T03:05:24;100065.81;;;29.44;42.60
81865;BME280;71313;43.514;1.500;2023-07-31T03:07:49;100063.88;;;29.44;42.36
81865;BME280;71313;43.514;1.500;2023-07-31T03:10:15;100050.69;;;29.39;43.12
81865;BME280;71313;43.514;1.500;2023-07-31T03:12:40;100067.91;;;29.41;42.85
81865;BME280;71313;43.514;1.500;2023-07-31T03:15:06;100058.78;;;29.41;42.58
81865;BME280;71313;43.514;1.500;2023-07-31T03:17:32;100047.94;;;29.39;42.59
81865;BME280;71313;43.514;1.500;2023-07-31T03:19:57;100068.56;;;29.44;42.82
81865;BME280;71313;43.514;1.500;2023-07-31T03:22:23;100068.13;;;29.40;42.93
81865;BME280;71313;43.514;1.500;2023-07-31T03:24:48;100065.16;;;29.41;42.58
81865;BME280;71313;43.514;1.500;2023-07-31T03:27:13;100067.91;;;29.41;42.83
81865;BME280;71313;43.514;1.500;2023-07-31T03:29:39;100058.38;;;29.37;42.58
81865;BME280;71313;43.514;1.500;2023-07-31T03:32:04;100061.75;;;29.39;42.96
81865;BME280;71313;43.514;1.500;2023-07-31T03:34:30;100060.06;;;29.38;42.85
81865;BME280;71313;43.514;1.500;2023-07-31T03:36:57;100062.38;;;29.41;42.70
81865;BME280;71313;43.514;1.500;2023-07-31T03:39:23;100065.16;;;29.41;42.38
81865;BME280;71313;43.514;1.500;2023-07-31T03:41:48;100057.53;;;29.37;42.39
81865;BME280;71313;43.514;1.500;2023-07-31T03:44:14;100063.91;;;29.37;43.00
81865;BME280;71313;43.514;1.500;2023-07-31T03:46:39;100060.50;;;29.35;42.91
81865;BME280;71313;43.514;1.500;2023-07-31T03:49:05;100056.69;;;29.36;42.44
81865;BME280;71313;43.514;1.500;2023-07-31T03:51:30;100069.44;;;29.37;42.46
81865;BME280;71313;43.514;1.500;2023-07-31T03:53:55;100061.13;;;29.37;43.04
81865;BME280;71313;43.514;1.500;2023-07-31T03:56:21;100060.28;;;29.37;42.40
81865;BME280;71313;43.514;1.500;2023-07-31T03:58:47;100059.22;;;29.38;42.86
81865;BME280;71313;43.514;1.500;2023-07-31T04:01:13;100078.34;;;29.39;42.88
81865;BME280;71313;43.514;1.500;2023-07-31T04:03:38;100067.09;;;29.34;42.51
81865;BME280;71313;43.514;1.500;2023-07-31T04:06:03;100074.97;;;29.37;42.48
81865;BME280;71313;43.514;1.500;2023-07-31T04:08:29;100076.66;;;29.38;42.83
81865;BME280;71313;43.514;1.500;2023-07-31T04:10:54;100074.97;;;29.37;42.59
81865;BME280;71313;43.514;1.500;2023-07-31T04:13:21;100082.63;;;29.35;42.96
81865;BME280;71313;43.514;1.500;2023-07-31T04:15:50;100086.00;;;29.37;42.53
81865;BME280;71313;43.514;1.500;2023-07-31T04:18:19;100076.47;;;29.33;42.70
81865;BME280;71313;43.514;1.500;2023-07-31T04:20:44;100087.72;;;29.38;42.66
81865;BME280;71313;43.514;1.500;2023-07-31T04:23:10;100086.00;;;29.37;42.27
81865;BME280;71313;43.514;1.500;2023-07-31T04:25:35;100084.31;;;29.36;42.59
81865;BME280;71313;43.514;1.500;2023-07-31T04:28:01;100080.09;;;29.34;42.63
81865;BME280;71313;43.514;1.500;2023-07-31T04:30:26;100070.94;;;29.33;42.26
81865;BME280;71313;43.514;1.500;2023-07-31T04:32:52;100078.78;;;29.36;42.55
81865;BME280;71313;43.514;1.500;2023-07-31T04:35:18;100079.88;;;29.35;42.72
81865;BME280;71313;43.514;1.500;2023-07-31T04:37:43;100094.53;;;29.36;42.55
81865;BME280;71313;43.514;1.500;2023-07-31T04:40:11;100082.66;;;29.29;42.53
81865;BME280;71313;43.514;1.500;2023-07-31T04:42:36;100093.69;;;29.35;42.65
81865;BME280;71313;43.514;1.500;2023-07-31T04:45:02;100083.50;;;29.29;42.16
81865;BME280;71313;43.514;1.500;2023-07-31T04:47:27;100101.34;;;29.33;42.18
81865;BME280;71313;43.514;1.500;2023-07-31T04:49:53;100103.50;;;29.31;42.28
81865;BME280;71313;43.514;1.500;2023-07-31T04:52:18;100105.19;;;29.32;42.65
81865;BME280;71313;43.514;1.500;2023-07-31T04:54:44;100109.03;;;29.31;42.32
81865;BME280;71313;43.514;1.500;2023-07-31T04:57:09;100114.56;;;29.31;42.50
81865;BME280;71313;43.514;1.500;2023-07-31T04:59:34;100113.28;;;29.27;42.77
81865;BME280;71313;43.514;1.500;2023-07-31T05:02:00;100109.91;;;29.25;42.31
81865;BME280;71313;43.514;1.500;2023-07-31T05:04:25;100119.22;;;29.31;42.50
81865;BME280;71313;43.514;1.500;2023-07-31T05:06:51;100115.00;;;29.28;42.67
81865;BME280;71313;43.514;1.500;2023-07-31T05:09:16;100115.00;;;29.28;42.65
81865;BME280;71313;43.514;1.500;2023-07-31T05:11:42;100123.91;;;29.30;42.57
81865;BME280;71313;43.514;1.500;2023-07-31T05:14:08;100115.00;;;29.28;42.65
81865;BME280;71313;43.514;1.500;2023-07-31T05:16:34;100127.75;;;29.29;42.29
81865;BME280;71313;43.514;1.500;2023-07-31T05:18:59;100115.00;;;29.28;42.37
81865;BME280;71313;43.514;1.500;2023-07-31T05:21:25;100122.22;;;29.29;42.26
81865;BME280;71313;43.514;1.500;2023-07-31T05:23:50;100109.91;;;29.25;42.13
81865;BME280;71313;43.514;1.500;2023-07-31T05:26:15;100118.81;;;29.27;42.14
81865;BME280;71313;43.514;1.500;2023-07-31T05:28:41;100115.44;;;29.25;42.06
81865;BME280;71313;43.514;1.500;2023-07-31T05:31:06;100117.75;;;29.28;42.28
81865;BME280;71313;43.514;1.500;2023-07-31T05:33:32;100126.91;;;29.29;42.42
81865;BME280;71313;43.514;1.500;2023-07-31T05:35:58;100114.38;;;29.26;42.21
81865;BME280;71313;43.514;1.500;2023-07-31T05:38:23;100111.59;;;29.26;42.56
81865;BME280;71313;43.514;1.500;2023-07-31T05:40:49;100115.00;;;29.28;42.46
81865;BME280;71313;43.514;1.500;2023-07-31T05:43:14;100114.59;;;29.25;42.58
81865;BME280;71313;43.514;1.500;2023-07-31T05:45:41;100120.97;;;29.25;42.11
81865;BME280;71313;43.514;1.500;2023-07-31T05:48:07;100115.44;;;29.25;42.36
81865;BME280;71313;43.514;1.500;2023-07-31T05:50:32;100107.81;;;29.21;42.23
81865;BME280;71313;43.514;1.500;2023-07-31T05:52:57;100114.19;;;29.21;42.61
81865;BME280;71313;43.514;1.500;2023-07-31T05:55:24;100115.88;;;29.22;42.42
81865;BME280;71313;43.514;1.500;2023-07-31T05:57:52;100120.97;;;29.25;42.54
81865;BME280;71313;43.514;1.500;2023-07-31T06:00:17;100123.53;;;29.20;42.40
81865;BME280;71313;43.514;1.500;2023-07-31T06:02:43;100126.94;;;29.22;41.86
81865;BME280;71313;43.514;1.500;2023-07-31T06:05:08;100123.72;;;29.25;42.20
81865;BME280;71313;43.514;1.500;2023-07-31T06:07:33;100134.16;;;29.23;42.26
81865;BME280;71313;43.514;1.500;2023-07-31T06:09:59;100134.16;;;29.23;42.48
81865;BME280;71313;43.514;1.500;2023-07-31T06:12:29;100129.25;;;29.25;42.21
81865;BME280;71313;43.514;1.500;2023-07-31T06:14:55;100130.75;;;29.21;41.87
81865;BME280;71313;43.514;1.500;2023-07-31T06:17:20;100116.34;;;29.13;42.21
81865;BME280;71313;43.514;1.500;2023-07-31T06:19:46;100137.13;;;29.22;42.16
81865;BME280;71313;43.514;1.500;2023-07-31T06:22:12;100128.44;;;29.18;42.05
81865;BME280;71313;43.514;1.500;2023-07-31T06:24:37;100130.31;;;29.24;42.08
81865;BME280;71313;43.514;1.500;2023-07-31T06:27:03;100113.38;;;29.14;42.00
81865;BME280;71313;43.514;1.500;2023-07-31T06:29:29;100128.00;;;29.21;42.08
81865;BME280;71313;43.514;1.500;2023-07-31T06:31:55;100131.63;;;29.22;42.07
81865;BME280;71313;43.514;1.500;2023-07-31T06:34:20;100133.31;;;29.23;41.98
81865;BME280;71313;43.514;1.500;2023-07-31T06:36:46;100127.81;;;29.16;42.09
81865;BME280;71313;43.514;1.500;2023-07-31T06:39:11;100132.06;;;29.19;42.50
81865;BME280;71313;43.514;1.500;2023-07-31T06:41:38;100137.38;;;29.20;42.18
81865;BME280;71313;43.514;1.500;2023-07-31T06:44:03;100129.13;;;29.07;41.43
81865;BME280;71313;43.514;1.500;2023-07-31T06:46:28;100127.09;;;28.89;41.68
81865;BME280;71313;43.514;1.500;2023-07-31T06:48:54;100115.25;;;28.62;40.86
81865;BME280;71313;43.514;1.500;2023-07-31T06:51:20;100137.84;;;28.46;40.35
81865;BME280;71313;43.514;1.500;2023-07-31T06:53:46;100132.97;;;28.22;40.52
81865;BME280;71313;43.514;1.500;2023-07-31T06:56:11;100131.28;;;28.01;40.73
81865;BME280;71313;43.514;1.500;2023-07-31T06:58:36;100130.63;;;27.79;40.20
81865;BME280;71313;43.514;1.500;2023-07-31T07:01:02;100135.91;;;27.61;39.86
81865;BME280;71313;43.514;1.500;2023-07-31T07:03:27;100143.72;;;27.51;39.91
81865;BME280;71313;43.514;1.500;2023-07-31T07:05:53;100140.28;;;27.35;39.26
81865;BME280;71313;43.514;1.500;2023-07-31T07:08:18;100136.00;;;27.20;39.43
81865;BME280;71313;43.514;1.500;2023-07-31T07:10:44;100135.97;;;27.06;38.80
81865;BME280;71313;43.514;1.500;2023-07-31T07:13:09;100136.78;;;27.00;38.71
81865;BME280;71313;43.514;1.500;2023-07-31T07:15:34;100139.03;;;26.90;38.07
81865;BME280;71313;43.514;1.500;2023-07-31T07:18:01;100134.13;;;26.79;38.93
81865;BME280;71313;43.514;1.500;2023-07-31T07:20:26;100125.13;;;26.64;38.17
81865;BME280;71313;43.514;1.500;2023-07-31T07:22:52;100125.50;;;26.54;38.11
81865;BME280;71313;43.514;1.500;2023-07-31T07:25:17;100119.06;;;26.40;37.73
81865;BME280;71313;43.514;1.500;2023-07-31T07:27:43;100123.47;;;26.35;37.87
81865;BME280;71313;43.514;1.500;2023-07-31T07:30:09;100133.38;;;26.29;37.75
81865;BME280;71313;43.514;1.500;2023-07-31T07:32:35;100116.31;;;26.12;37.58
81865;BME280;71313;43.514;1.500;2023-07-31T07:35:00;100133.66;;;26.13;37.18
81865;BME280;71313;43.514;1.500;2023-07-31T07:37:25;100122.63;;;26.06;37.46
81865;BME280;71313;43.514;1.500;2023-07-31T07:39:51;100118.34;;;25.97;37.14
81865;BME280;71313;43.514;1.500;2023-07-31T07:42:16;100124.25;;;25.94;37.62
81865;BME280;71313;43.514;1.500;2023-07-31T07:44:41;100119.94;;;25.85;36.61
81865;BME280;71313;43.514;1.500;2023-07-31T07:47:07;100117.78;;;25.80;36.67
81865;BME280;71313;43.514;1.500;2023-07-31T07:49:33;100115.19;;;25.72;37.40
81865;BME280;71313;43.514;1.500;2023-07-31T07:51:59;100098.63;;;25.66;37.76
81865;BME280;71313;43.514;1.500;2023-07-31T07:54:25;100119.94;;;25.85;37.04
81865;BME280;71313;43.514;1.500;2023-07-31T07:56:50;100122.94;;;25.90;37.36
81865;BME280;71313;43.514;1.500;2023-07-31T07:59:16;100121.75;;;25.99;37.27
81865;BME280;71313;43.514;1.500;2023-07-31T08:01:41;100098.69;;;26.00;37.51
81865;BME280;71313;43.514;1.500;2023-07-31T08:04:06;100108.72;;;26.14;37.86
81865;BME280;71313;43.514;1.500;2023-07-31T08:06:32;100102.00;;;26.24;38.07
81865;BME280;71313;43.514;1.500;2023-07-31T08:08:57;100100.56;;;26.28;38.23
81865;BME280;71313;43.514;1.500;2023-07-31T08:11:23;100094.47;;;26.32;38.37
81865;BME280;71313;43.514;1.500;2023-07-31T08:13:49;100100.06;;;26.45;38.18
81865;BME280;71313;43.514;1.500;2023-07-31T08:16:15;100101.78;;;26.53;37.81
81865;BME280;71313;43.514;1.500;2023-07-31T08:18:40;100100.56;;;26.62;38.55
81865;BME280;71313;43.514;1.500;2023-07-31T08:21:07;100101.84;;;26.66;38.36
81865;BME280;71313;43.514;1.500;2023-07-31T08:23:33;100096.78;;;26.70;38.05
81865;BME280;71313;43.514;1.500;2023-07-31T08:25:58;100091.72;;;26.73;38.12
81865;BME280;71313;43.514;1.500;2023-07-31T08:28:23;100090.91;;;26.79;38.34
81865;BME280;71313;43.514;1.500;2023-07-31T08:30:49;100090.09;;;26.85;38.13
81865;BME280;71313;43.514;1.500;2023-07-31T08:33:15;100093.91;;;26.91;38.59
81865;BME280;71313;43.514;1.500;2023-07-31T08:35:41;100092.66;;;26.94;38.49
81865;BME280;71313;43.514;1.500;2023-07-31T08:38:06;100085.72;;;26.98;38.16
81865;BME280;71313;43.514;1.500;2023-07-31T08:40:36;100080.00;;;26.99;38.53
81865;BME280;71313;43.514;1.500;2023-07-31T08:43:02;100071.75;;;27.06;38.28
81865;BME280;71313;43.514;1.500;2023-07-31T08:45:28;100079.59;;;27.09;38.86
81865;BME280;71313;43.514;1.500;2023-07-31T08:47:55;100072.19;;;27.09;38.77
81865;BME280;71313;43.514;1.500;2023-07-31T08:50:22;100069.22;;;27.11;39.00
81865;BME280;71313;43.514;1.500;2023-07-31T08:52:49;100076.66;;;27.17;39.02
81865;BME280;71313;43.514;1.500;2023-07-31T08:55:16;100073.69;;;27.19;39.07
81865;BME280;71313;43.514;1.500;2023-07-31T08:57:42;100066.06;;;27.21;38.57
81865;BME280;71313;43.514;1.500;2023-07-31T09:00:09;100076.47;;;27.25;38.50
81865;BME280;71313;43.514;1.500;2023-07-31T09:02:56;100063.75;;;27.24;39.37
81865;BME280;71313;43.514;1.500;2023-07-31T09:05:23;100064.16;;;27.21;39.03
81865;BME280;71313;43.514;1.500;2023-07-31T09:07:51;100056.75;;;27.28;39.19
81865;BME280;71313;43.514;1.500;2023-07-31T09:10:16;100063.97;;;27.29;39.33
81865;BME280;71313;43.514;1.500;2023-07-31T09:12:42;100066.31;;;27.32;39.16
81865;BME280;71313;43.514;1.500;2023-07-31T09:15:08;100061.84;;;27.31;39.18
81865;BME280;71313;43.514;1.500;2023-07-31T09:17:36;100048.28;;;27.36;38.73
81865;BME280;71313;43.514;1.500;2023-07-31T09:20:19;100049.13;;;27.37;39.56
81865;BME280;71313;43.514;1.500;2023-07-31T09:22:45;100051.69;;;27.38;39.02
81865;BME280;71313;43.514;1.500;2023-07-31T09:25:25;100038.53;;;27.40;39.04
81865;BME280;71313;43.514;1.500;2023-07-31T09:27:59;100035.78;;;27.40;39.30
81865;BME280;71313;43.514;1.500;2023-07-31T09:30:25;100037.06;;;27.44;39.13
81865;BME280;71313;43.514;1.500;2023-07-31T09:32:52;100036.84;;;27.46;39.04
81865;BME280;71313;43.514;1.500;2023-07-31T09:35:29;100033.88;;;27.47;39.00
81865;BME280;71313;43.514;1.500;2023-07-31T09:38:01;100028.38;;;27.47;38.97
81865;BME280;71313;43.514;1.500;2023-07-31T09:40:30;100038.97;;;27.51;39.55
81865;BME280;71313;43.514;1.500;2023-07-31T09:42:57;100039.59;;;27.53;39.46
81865;BME280;71313;43.514;1.500;2023-07-31T09:45:24;100026.66;;;27.53;39.53
81865;BME280;71313;43.514;1.500;2023-07-31T09:47:49;100031.34;;;27.53;39.30
81865;BME280;71313;43.514;1.500;2023-07-31T09:50:15;100019.88;;;27.56;39.81
81865;BME280;71313;43.514;1.500;2023-07-31T09:52:44;100021.78;;;27.55;39.80
81865;BME280;71313;43.514;1.500;2023-07-31T09:55:10;100027.72;;;27.59;39.42
81865;BME280;71313;43.514;1.500;2023-07-31T09:57:43;100021.19;;;27.60;39.09
81865;BME280;71313;43.514;1.500;2023-07-31T10:00:10;100013.56;;;27.62;39.29
81865;BME280;71313;43.514;1.500;2023-07-31T10:02:36;100020.75;;;27.63;39.49
81865;BME280;71313;43.514;1.500;2023-07-31T10:05:03;100025.84;;;27.66;39.47
81865;BME280;71313;43.514;1.500;2023-07-31T10:07:31;100010.16;;;27.60;39.61
81865;BME280;71313;43.514;1.500;2023-07-31T10:10:00;100006.78;;;27.64;39.40
81865;BME280;71313;43.514;1.500;2023-07-31T10:12:27;100014.81;;;27.66;39.52
81865;BME280;71313;43.514;1.500;2023-07-31T10:14:55;100008.69;;;27.64;39.49
81865;BME280;71313;43.514;1.500;2023-07-31T10:17:22;100010.16;;;27.66;39.25
81865;BME280;71313;43.514;1.500;2023-07-31T10:19:51;100002.94;;;27.72;39.75
81865;BME280;71313;43.514;1.500;2023-07-31T10:22:19;100010.16;;;27.73;39.80
81865;BME280;71313;43.514;1.500;2023-07-31T10:24:46;100006.34;;;27.74;39.71
81865;BME280;71313;43.514;1.500;2023-07-31T10:27:12;100008.25;;;27.73;39.37
81865;BME280;71313;43.514;1.500;2023-07-31T10:29:38;99998.06;;;27.74;40.13
81865;BME280;71313;43.514;1.500;2023-07-31T10:32:05;100000.41;;;27.77;39.62
81865;BME280;71313;43.514;1.500;2023-07-31T10:34:34;100002.09;;;27.78;39.46
81865;BME280;71313;43.514;1.500;2023-07-31T10:37:23;99999.34;;;27.78;39.90
81865;BME280;71313;43.514;1.500;2023-07-31T10:39:59;99999.97;;;27.80;40.06
81865;BME280;71313;43.514;1.500;2023-07-31T10:42:36;99997.41;;;27.78;39.53
81865;BME280;71313;43.514;1.500;2023-07-31T10:45:10;99998.91;;;27.81;40.05
81865;BME280;71313;43.514;1.500;2023-07-31T10:47:46;99997.00;;;27.82;40.05
81865;BME280;71313;43.514;1.500;2023-07-31T10:52:36;99978.97;;;27.79;40.04
81865;BME280;71313;43.514;1.500;2023-07-31T10:55:40;99990.63;;;27.81;40.23
81865;BME280;71313;43.514;1.500;2023-07-31T10:58:11;99986.81;;;27.82;40.50
81865;BME280;71313;43.514;1.500;2023-07-31T11:00:38;99976.63;;;27.83;40.32
81865;BME280;71313;43.514;1.500;2023-07-31T11:03:14;99978.75;;;27.87;39.98
81865;BME280;71313;43.514;1.500;2023-07-31T11:08:22;99976.63;;;27.89;40.20
81865;BME280;71313;43.514;1.500;2023-07-31T11:11:10;99971.09;;;27.89;39.77
81865;BME280;71313;43.514;1.500;2023-07-31T11:13:43;99966.63;;;27.88;40.02
81865;BME280;71313;43.514;1.500;2023-07-31T11:16:09;99977.25;;;27.91;40.19
81865;BME280;71313;43.514;1.500;2023-07-31T11:18:35;99974.06;;;27.88;40.44
81865;BME280;71313;43.514;1.500;2023-07-31T11:21:03;99972.78;;;27.90;40.48
81865;BME280;71313;43.514;1.500;2023-07-31T11:23:28;99965.38;;;27.91;39.93
81865;BME280;71313;43.514;1.500;2023-07-31T11:25:59;99963.03;;;27.94;40.05
81865;BME280;71313;43.514;1.500;2023-07-31T11:28:24;99966.84;;;27.93;41.03
81865;BME280;71313;43.514;1.500;2023-07-31T11:30:50;99953.25;;;27.92;40.63
81865;BME280;71313;43.514;1.500;2023-07-31T11:33:15;99957.50;;;27.94;40.76
81865;BME280;71313;43.514;1.500;2023-07-31T11:35:48;99944.34;;;27.96;40.30
81865;BME280;71313;43.514;1.500;2023-07-31T11:41:02;99939.47;;;27.98;40.73
81865;BME280;71313;43.514;1.500;2023-07-31T11:43:28;99940.75;;;27.96;40.71
81865;BME280;71313;43.514;1.500;2023-07-31T11:45:55;99945.59;;;28.00;40.96
81865;BME280;71313;43.514;1.500;2023-07-31T11:48:26;99929.06;;;28.00;40.54
81865;BME280;71313;43.514;1.500;2023-07-31T11:50:57;99934.56;;;28.00;40.82
81865;BME280;71313;43.514;1.500;2023-07-31T11:54:16;99927.34;;;27.99;40.85
81865;BME280;71313;43.514;1.500;2023-07-31T11:56:36;99922.47;;;28.01;40.83
81865;BME280;71313;43.514;1.500;2023-07-31T11:59:02;99917.81;;;27.95;40.38
81865;BME280;71313;43.514;1.500;2023-07-31T12:01:29;99921.00;;;27.99;41.13
81865;BME280;71313;43.514;1.500;2023-07-31T12:03:55;99918.44;;;28.04;40.70
81865;BME280;71313;43.514;1.500;2023-07-31T12:06:21;99914.81;;;28.03;41.12
81865;BME280;71313;43.514;1.500;2023-07-31T12:08:47;99899.34;;;28.02;40.76
81865;BME280;71313;43.514;1.500;2023-07-31T12:11:13;99913.97;;;28.03;40.76
81865;BME280;71313;43.514;1.500;2023-07-31T12:13:43;99898.28;;;28.03;40.51
81865;BME280;71313;43.514;1.500;2023-07-31T12:16:08;99904.63;;;28.04;40.71
81865;BME280;71313;43.514;1.500;2023-07-31T12:18:35;99899.97;;;28.04;40.56
81865;BME280;71313;43.514;1.500;2023-07-31T12:21:02;99900.41;;;28.01;40.71
81865;BME280;71313;43.514;1.500;2023-07-31T12:23:30;99902.28;;;28.07;40.60
81865;BME280;71313;43.514;1.500;2023-07-31T12:26:16;99897.84;;;28.06;40.74
81865;BME280;71313;43.514;1.500;2023-07-31T12:28:45;99902.91;;;28.09;40.60
81865;BME280;71313;43.514;1.500;2023-07-31T12:31:21;99877.28;;;28.02;40.66
81865;BME280;71313;43.514;1.500;2023-07-31T12:33:49;99886.38;;;28.09;41.34
81865;BME280;71313;43.514;1.500;2023-07-31T12:36:22;99881.47;;;28.11;41.15
81865;BME280;71313;43.514;1.500;2023-07-31T12:38:49;99888.69;;;28.12;40.95
81865;BME280;71313;43.514;1.500;2023-07-31T12:41:16;99883.16;;;28.12;40.53
81865;BME280;71313;43.514;1.500;2023-07-31T12:43:43;99877.88;;;28.11;40.93
81865;BME280;71313;43.514;1.500;2023-07-31T12:46:09;99866.19;;;28.09;41.10
81865;BME280;71313;43.514;1.500;2023-07-31T12:48:35;99867.06;;;28.09;41.19
81865;BME280;71313;43.514;1.500;2023-07-31T12:51:01;99879.34;;;28.13;40.71
81865;BME280;71313;43.514;1.500;2023-07-31T12:53:27;99869.59;;;28.11;41.23
81865;BME280;71313;43.514;1.500;2023-07-31T12:55:53;99861.09;;;28.12;41.34
81865;BME280;71313;43.514;1.500;2023-07-31T12:58:18;99864.47;;;28.15;41.18
81865;BME280;71313;43.514;1.500;2023-07-31T13:00:44;99855.16;;;28.09;41.17
81865;BME280;71313;43.514;1.500;2023-07-31T13:03:09;99858.97;;;28.15;41.05
81865;BME280;71313;43.514;1.500;2023-07-31T13:05:36;99847.53;;;28.11;40.88